Shefford, Canada
Current Conditions -  °F | °C
As of 3:15 PM on Wednesday 28 Jan 2015 (Local Time) from KEFK Reporting Station
Clear Clear  
Wind Chill: -1°   Ceiling: Unl
Heat Index: 13°   Visibility: 10mi
Dew Point: -6°   Wind: 12mph
Humidity: 43%   Direction: 320°NW
Pressure: 30.09"   Gusts: 16mph
Location:  45.42°N, 72.58°W
Report Text: KEFK 282015Z AUTO 32010G14KT 10SM CLR M11/M21 A3009 RMK AO2 T11061211
Loading
Personal Weather Stations






























Interactive Weather Map New forecast layout! Learn more

10-Day Weather Forecast

Advertisements
Track Severe Weather on mobile